Time;durP1;ratioP1;P1;durP2;ratioP2;P2;SDS_P1;SDS_P2;PMS_P1;PMS_P2;Temp;Humidity;BMP_temperature;BMP_pressure;BME280_temperature;BME280_humidity;BME280_pressure;Samples;Min_cycle;Max_cycle;Signal;HPM_P1;HPM_P2
2023/05/07 04:00:03;;;;;;;;;;;;;;;18.91;66.52;96812.00;4255521;27;10325;-72
2023/05/07 04:02:06;;;;;;;;;;;;;;;19.16;65.93;96806.22;4256028;27;5712;-72
2023/05/07 04:04:09;;;;;;;;;;;;;;;19.34;65.60;96802.41;4255613;27;5641;-72
2023/05/07 04:06:12;;;;;;;;;;;;;;;19.49;65.26;96806.13;4255811;27;5885;-71
2023/05/07 04:08:15;;;;;;;;;;;;;;;19.63;64.94;96797.72;4255268;27;6015;-72
2023/05/07 04:10:18;;;;;;;;;;;;;;;19.67;64.69;96802.31;4253947;27;5689;-72
2023/05/07 04:12:21;;;;;;;;;;;;;;;19.74;64.71;96808.31;4255667;27;5194;-72
2023/05/07 04:14:24;;;;;;;;;;;;;;;19.80;64.47;96811.84;4255698;27;5667;-72
2023/05/07 04:16:28;;;;;;;;;;;;;;;19.86;64.46;96818.91;4260511;27;5763;-72
2023/05/07 04:18:31;;;;;;;;;;;;;;;19.90;64.20;96811.16;4249809;27;5638;-72
2023/05/07 04:20:36;;;;;;;;;;;;;;;19.94;64.05;96817.66;4255327;27;5773;-72
2023/05/07 04:22:39;;;;;;;;;;;;;;;19.99;64.06;96809.66;4255499;27;5742;-72
2023/05/07 04:24:41;;;;;;;;;;;;;;;20.03;63.81;96826.88;4255632;27;5749;-72
2023/05/07 04:26:44;;;;;;;;;;;;;;;20.05;63.48;96822.06;4253965;27;5633;-72
2023/05/07 04:28:47;;;;;;;;;;;;;;;20.08;63.66;96824.25;4247506;27;5730;-72
2023/05/07 04:30:50;;;;;;;;;;;;;;;20.08;63.52;96832.31;4243786;27;5703;-72
2023/05/07 04:32:55;;;;;;;;;;;;;;;20.12;63.39;96830.72;4260405;27;5617;-72
2023/05/07 04:34:58;;;;;;;;;;;;;;;20.16;63.34;96834.53;4254929;27;5792;-72
2023/05/07 04:37:01;;;;;;;;;;;;;;;20.20;63.13;96848.25;4246743;27;5663;-72
2023/05/07 04:39:04;;;;;;;;;;;;;;;20.20;62.86;96843.69;4254737;27;5617;-72
2023/05/07 04:41:07;;;;;;;;;;;;;;;20.20;63.05;96853.63;4248453;27;5642;-72
2023/05/07 04:43:10;;;;;;;;;;;;;;;20.22;63.02;96857.66;4252842;27;5662;-72
2023/05/07 04:45:13;;;;;;;;;;;;;;;20.26;62.93;96868.69;4249325;27;5776;-72
2023/05/07 04:47:16;;;;;;;;;;;;;;;20.29;62.63;96857.47;4254842;27;5629;-72
2023/05/07 04:49:20;;;;;;;;;;;;;;;20.29;62.66;96862.84;4258025;27;5745;-72
2023/05/07 04:51:23;;;;;;;;;;;;;;;20.31;62.95;96869.59;4254884;27;5841;-72
2023/05/07 04:53:25;;;;;;;;;;;;;;;20.32;62.77;96870.38;4253536;27;5662;-72
2023/05/07 04:55:28;;;;;;;;;;;;;;;20.32;62.69;96873.06;4254875;27;5726;-72
2023/05/07 04:57:31;;;;;;;;;;;;;;;20.34;62.59;96879.81;4246216;27;5655;-73
2023/05/07 04:59:34;;;;;;;;;;;;;;;20.35;62.43;96868.00;4250608;27;5742;-72
2023/05/07 05:01:37;;;;;;;;;;;;;;;20.37;62.49;96873.13;4249799;27;5704;-72
2023/05/07 05:03:40;;;;;;;;;;;;;;;20.37;62.59;96878.47;4236889;27;5727;-72
2023/05/07 05:05:45;;;;;;;;;;;;;;;20.39;62.57;96880.94;4241942;27;5629;-72
2023/05/07 05:07:48;;;;;;;;;;;;;;;20.41;62.30;96873.44;4243294;27;5748;-71
2023/05/07 05:09:50;;;;;;;;;;;;;;;20.42;62.33;96877.75;4243040;27;5629;-72
2023/05/07 05:11:53;;;;;;;;;;;;;;;20.43;62.06;96880.19;4234513;27;5729;-71
2023/05/07 05:13:56;;;;;;;;;;;;;;;20.40;61.99;96875.31;4235045;27;5711;-72
2023/05/07 05:15:59;;;;;;;;;;;;;;;20.39;62.30;96884.44;4242706;27;5723;-72
2023/05/07 05:18:02;;;;;;;;;;;;;;;20.40;62.12;96874.50;4232465;28;5628;-72
2023/05/07 05:20:06;;;;;;;;;;;;;;;20.39;62.15;96862.97;4236033;27;5642;-72
2023/05/07 05:22:11;;;;;;;;;;;;;;;20.32;61.69;96859.66;4246642;27;5777;-71
2023/05/07 05:24:14;;;;;;;;;;;;;;;20.26;61.95;96869.50;4242665;27;5666;-72
2023/05/07 05:26:16;;;;;;;;;;;;;;;20.28;61.68;96872.78;4237023;27;6450;-74
2023/05/07 05:28:19;;;;;;;;;;;;;;;20.30;61.91;96862.59;4228597;27;7017;-77
2023/05/07 05:30:22;;;;;;;;;;;;;;;20.30;61.80;96859.91;4231019;28;5638;-70
2023/05/07 05:32:25;;;;;;;;;;;;;;;20.30;62.13;96861.78;4242496;27;5616;-70
2023/05/07 05:34:28;;;;;;;;;;;;;;;20.29;61.84;96866.34;4233975;27;6507;-70
2023/05/07 05:36:31;;;;;;;;;;;;;;;20.30;61.80;96869.84;4235134;27;5719;-70
2023/05/07 05:38:35;;;;;;;;;;;;;;;20.32;61.96;96865.84;4236596;27;5757;-70
2023/05/07 05:40:38;;;;;;;;;;;;;;;20.33;61.79;96883.56;4231441;27;5718;-70
2023/05/07 05:42:41;;;;;;;;;;;;;;;20.29;61.69;96877.09;4231769;28;5801;-69
2023/05/07 05:44:44;;;;;;;;;;;;;;;20.21;61.81;96879.41;4232196;28;5738;-71
2023/05/07 05:46:47;;;;;;;;;;;;;;;20.19;61.82;96873.47;4233071;27;5760;-70
2023/05/07 05:48:50;;;;;;;;;;;;;;;20.18;61.76;96867.31;4232025;28;5661;-71
2023/05/07 05:50:52;;;;;;;;;;;;;;;20.21;61.71;96874.03;4233835;28;5638;-70
2023/05/07 05:52:56;;;;;;;;;;;;;;;20.24;61.92;96873.53;4233413;28;5722;-71
2023/05/07 05:55:00;;;;;;;;;;;;;;;20.24;61.96;96860.09;4233387;28;6494;-71
2023/05/07 05:57:04;;;;;;;;;;;;;;;20.21;61.93;96865.97;4227660;28;5670;-70
2023/05/07 05:59:07;;;;;;;;;;;;;;;20.18;61.75;96864.63;4231022;28;5740;-70
2023/05/07 06:01:11;;;;;;;;;;;;;;;20.19;62.16;96862.75;4228229;28;5658;-71
2023/05/07 06:03:14;;;;;;;;;;;;;;;20.23;62.07;96863.84;4234566;27;5369;-71
2023/05/07 06:05:17;;;;;;;;;;;;;;;20.24;62.03;96858.22;4230958;27;5750;-70
2023/05/07 06:07:19;;;;;;;;;;;;;;;20.32;62.01;96852.41;4228948;28;5639;-70
2023/05/07 06:09:22;;;;;;;;;;;;;;;20.38;61.85;96849.75;4229604;28;5806;-70
2023/05/07 06:11:27;;;;;;;;;;;;;;;20.42;61.88;96851.72;4223778;28;5737;-69
2023/05/07 06:13:30;;;;;;;;;;;;;;;20.48;61.49;96855.25;4234023;28;5643;-71
2023/05/07 06:15:33;;;;;;;;;;;;;;;20.52;61.85;96862.56;4232124;28;5769;-71
2023/05/07 06:17:36;;;;;;;;;;;;;;;20.57;61.53;96856.44;4227176;28;5810;-70
2023/05/07 06:19:39;;;;;;;;;;;;;;;20.59;61.59;96857.78;4228104;28;5810;-70
2023/05/07 06:21:42;;;;;;;;;;;;;;;20.61;61.37;96847.63;4233726;28;5745;-70
2023/05/07 06:23:44;;;;;;;;;;;;;;;20.63;61.30;96842.78;4233840;28;5772;-70
2023/05/07 06:25:49;;;;;;;;;;;;;;;20.70;61.63;96847.94;4229736;28;5697;-71
2023/05/07 06:27:54;;;;;;;;;;;;;;;20.73;61.25;96839.38;4224997;28;6594;-72
2023/05/07 06:29:56;;;;;;;;;;;;;;;20.75;61.19;96839.13;4229763;28;5828;-71
2023/05/07 06:32:07;;;;;;;;;;;;;;;20.78;61.40;96839.41;4223651;28;5841;-71
2023/05/07 06:34:13;;;;;;;;;;;;;;;20.78;61.35;96842.09;4233282;27;5812;-71
2023/05/07 06:36:17;;;;;;;;;;;;;;;20.80;61.48;96847.22;4231061;28;6108;-71
2023/05/07 06:38:19;;;;;;;;;;;;;;;20.80;61.52;96845.34;4233377;28;5099;-72
2023/05/07 06:40:22;;;;;;;;;;;;;;;20.84;61.19;96843.78;4234630;28;5670;-71
2023/05/07 06:42:26;;;;;;;;;;;;;;;20.88;61.38;96838.69;4239744;27;5651;-71
2023/05/07 06:44:30;;;;;;;;;;;;;;;20.94;61.17;96849.19;4226436;28;5662;-71
2023/05/07 06:46:33;;;;;;;;;;;;;;;21.00;61.45;96847.38;4234981;27;5655;-71
2023/05/07 06:48:36;;;;;;;;;;;;;;;21.04;61.12;96848.47;4224009;28;5642;-71
2023/05/07 06:50:38;;;;;;;;;;;;;;;21.07;61.12;96847.16;4232236;28;5664;-71
2023/05/07 06:52:41;;;;;;;;;;;;;;;21.11;61.16;96840.19;4234305;28;5764;-71
2023/05/07 06:54:44;;;;;;;;;;;;;;;21.14;61.02;96831.59;4233802;28;5748;-71
2023/05/07 06:56:47;;;;;;;;;;;;;;;21.16;61.08;96840.22;4232276;28;5706;-71
2023/05/07 06:58:50;;;;;;;;;;;;;;;21.20;61.48;96847.53;4239243;27;5708;-71
2023/05/07 07:00:54;;;;;;;;;;;;;;;21.24;61.23;96842.41;4242838;27;5667;-64
2023/05/07 07:02:57;;;;;;;;;;;;;;;21.25;60.98;96845.91;4229236;28;5654;-64
2023/05/07 07:05:00;;;;;;;;;;;;;;;21.21;61.23;96846.44;4232398;27;5654;-64
2023/05/07 07:07:03;;;;;;;;;;;;;;;21.23;61.25;96840.81;4234322;28;5779;-64
2023/05/07 07:09:06;;;;;;;;;;;;;;;21.23;61.41;96846.19;4235967;27;5663;-64
2023/05/07 07:11:09;;;;;;;;;;;;;;;21.27;60.88;96852.69;4239934;27;5666;-64
2023/05/07 07:13:12;;;;;;;;;;;;;;;21.32;61.14;96852.72;4233756;28;5639;-64
2023/05/07 07:15:15;;;;;;;;;;;;;;;21.38;60.85;96850.88;4234392;28;5654;-64
2023/05/07 07:17:19;;;;;;;;;;;;;;;21.37;60.78;96850.06;4234307;28;5639;-64
2023/05/07 07:19:22;;;;;;;;;;;;;;;21.40;60.85;96854.09;4221203;28;5722;-65
2023/05/07 07:21:25;;;;;;;;;;;;;;;21.39;60.77;96850.59;4227570;28;5742;-64
2023/05/07 07:23:28;;;;;;;;;;;;;;;21.38;60.84;96848.97;4217284;28;5769;-64
2023/05/07 07:25:31;;;;;;;;;;;;;;;21.39;60.73;96852.47;4230823;28;5667;-64
2023/05/07 07:27:34;;;;;;;;;;;;;;;21.40;61.16;96857.59;4233787;28;5646;-64
2023/05/07 07:29:36;;;;;;;;;;;;;;;21.42;60.53;96850.09;4234441;28;5744;-65
2023/05/07 07:31:39;;;;;;;;;;;;;;;21.43;60.72;96850.91;4232077;28;5646;-65
2023/05/07 07:33:43;;;;;;;;;;;;;;;21.43;60.57;96857.09;4234542;28;5646;-64
2023/05/07 07:35:46;;;;;;;;;;;;;;;21.41;60.45;96853.88;4240696;27;5621;-63
2023/05/07 07:37:50;;;;;;;;;;;;;;;21.43;60.62;96857.09;4228845;28;5760;-63
2023/05/07 07:39:53;;;;;;;;;;;;;;;21.47;60.14;96850.13;4233733;28;5851;-64
2023/05/07 07:41:56;;;;;;;;;;;;;;;21.48;60.65;96854.41;4227814;28;5658;-65
2023/05/07 07:43:58;;;;;;;;;;;;;;;21.47;60.23;96847.44;4228594;28;5781;-63
2023/05/07 07:46:01;;;;;;;;;;;;;;;21.49;60.16;96852.53;4228172;28;7787;-63
2023/05/07 07:48:04;;;;;;;;;;;;;;;21.50;60.32;96860.34;4232772;28;5616;-63
2023/05/07 07:50:10;;;;;;;;;;;;;;;21.55;59.86;96853.41;4234219;28;5638;-63
2023/05/07 07:52:19;;;;;;;;;;;;;;;21.59;60.35;96863.34;4241647;27;5635;-63
2023/05/07 07:54:22;;;;;;;;;;;;;;;21.60;60.00;96872.22;4234073;28;5646;-63
2023/05/07 07:56:25;;;;;;;;;;;;;;;21.62;59.66;96870.09;4226780;28;5655;-64
2023/05/07 07:58:28;;;;;;;;;;;;;;;21.64;59.54;96873.34;4233594;28;5638;-64
2023/05/07 08:00:30;;;;;;;;;;;;;;;21.66;59.80;96861.25;4233015;28;5627;-64
2023/05/07 08:02:34;;;;;;;;;;;;;;;21.68;59.70;96864.47;4233210;28;5659;-64
2023/05/07 08:04:37;;;;;;;;;;;;;;;21.70;59.28;96869.59;4232063;28;5757;-64
2023/05/07 08:06:42;;;;;;;;;;;;;;;21.70;59.54;96862.34;4240050;27;5758;-64
2023/05/07 08:08:45;;;;;;;;;;;;;;;21.73;59.53;96855.59;4235097;27;5659;-64
2023/05/07 08:10:49;;;;;;;;;;;;;;;21.69;59.36;96860.72;4232115;28;5666;-64
2023/05/07 08:12:52;;;;;;;;;;;;;;;21.71;59.30;96868.53;4229146;27;5651;-63
2023/05/07 08:14:55;;;;;;;;;;;;;;;21.74;59.18;96868.78;4224210;27;5679;-63
2023/05/07 08:16:58;;;;;;;;;;;;;;;21.76;58.83;96872.06;4226854;27;5390;-63
2023/05/07 08:19:01;;;;;;;;;;;;;;;21.76;58.69;96869.38;4223778;28;5826;-63
2023/05/07 08:21:04;;;;;;;;;;;;;;;21.76;58.91;96865.88;4218684;27;5786;-68
2023/05/07 08:23:08;;;;;;;;;;;;;;;21.81;58.71;96873.94;4225284;28;5113;-66
2023/05/07 08:25:11;;;;;;;;;;;;;;;21.85;58.63;96872.34;4229179;27;5662;-67
2023/05/07 08:27:14;;;;;;;;;;;;;;;21.87;58.27;96872.91;4229207;27;5715;-68
2023/05/07 08:29:17;;;;;;;;;;;;;;;21.90;58.10;96872.38;4231408;27;5761;-69
2023/05/07 08:31:19;;;;;;;;;;;;;;;21.87;58.34;96870.22;4220011;27;5654;-68
2023/05/07 08:33:23;;;;;;;;;;;;;;;21.83;58.32;96865.63;4225244;27;5709;-68
2023/05/07 08:35:26;;;;;;;;;;;;;;;21.79;58.49;96876.09;4234120;27;5621;-66
2023/05/07 08:37:29;;;;;;;;;;;;;;;21.80;57.99;96877.72;4227673;28;5659;-69
2023/05/07 08:39:33;;;;;;;;;;;;;;;21.80;58.34;96888.47;4231448;27;5833;-67
2023/05/07 08:41:37;;;;;;;;;;;;;;;21.81;57.98;96887.41;4234231;28;5697;-66
2023/05/07 08:43:42;;;;;;;;;;;;;;;21.86;58.04;96876.69;4233443;27;5813;-71
2023/05/07 08:45:46;;;;;;;;;;;;;;;21.94;57.80;96881.53;4231736;27;6055;-68
2023/05/07 08:47:55;;;;;;;;;;;;;;;21.95;57.81;96875.06;4231322;28;5665;-69
2023/05/07 08:49:58;;;;;;;;;;;;;;;21.97;57.78;96872.97;4233484;27;5642;-69
2023/05/07 08:52:02;;;;;;;;;;;;;;;21.97;57.50;96872.13;4228912;27;5725;-71
2023/05/07 08:54:06;;;;;;;;;;;;;;;21.97;57.21;96872.13;4234723;27;5646;-72
2023/05/07 08:56:11;;;;;;;;;;;;;;;22.00;57.06;96869.72;4227389;27;5878;-72
2023/05/07 08:58:13;;;;;;;;;;;;;;;22.02;56.98;96874.84;4228840;28;5777;-72
2023/05/07 09:00:17;;;;;;;;;;;;;;;22.04;57.18;96876.19;4225986;27;5717;-72
2023/05/07 09:02:20;;;;;;;;;;;;;;;22.10;56.84;96876.25;4238460;27;5893;-74
2023/05/07 09:04:24;;;;;;;;;;;;;;;22.14;56.73;96871.97;4229451;27;5840;-77
2023/05/07 09:06:27;;;;;;;;;;;;;;;22.18;56.57;96873.03;4235478;27;5639;-77
2023/05/07 09:08:29;;;;;;;;;;;;;;;22.22;56.61;96863.38;4228050;27;5132;-75
2023/05/07 09:10:34;;;;;;;;;;;;;;;22.24;56.37;96869.28;4222519;27;5683;-78
2023/05/07 09:12:39;;;;;;;;;;;;;;;22.23;56.14;96865.00;4224752;27;5663;-77
2023/05/07 09:14:41;;;;;;;;;;;;;;;22.27;56.08;96866.06;4227566;27;5785;-79
2023/05/07 09:16:44;;;;;;;;;;;;;;;22.29;56.18;96870.09;4229496;27;5941;-77
2023/05/07 09:18:47;;;;;;;;;;;;;;;22.29;56.12;96863.91;4224055;27;5686;-80
2023/05/07 09:20:50;;;;;;;;;;;;;;;22.25;55.97;96874.41;4223562;27;6378;-76
2023/05/07 09:22:57;;;;;;;;;;;;;;;22.28;55.42;96873.88;4224275;27;5771;-77
2023/05/07 09:25:00;;;;;;;;;;;;;;;22.27;55.28;96876.84;4232567;28;5691;-80
2023/05/07 09:27:03;;;;;;;;;;;;;;;22.29;55.09;96880.06;4224642;27;5671;-81
2023/05/07 09:29:08;;;;;;;;;;;;;;;22.30;55.15;96881.69;4227072;28;5679;-79
2023/05/07 09:31:12;;;;;;;;;;;;;;;22.32;55.15;96880.38;4229428;27;5794;-78
2023/05/07 09:33:15;;;;;;;;;;;;;;;22.34;55.05;96885.47;4235086;27;5686;-73
2023/05/07 09:35:18;;;;;;;;;;;;;;;22.36;54.81;96894.09;4224905;27;5849;-77
2023/05/07 09:37:21;;;;;;;;;;;;;;;22.36;54.18;96878.75;4234655;27;5830;-82
2023/05/07 09:39:24;;;;;;;;;;;;;;;22.35;54.19;96890.59;4232845;27;5112;-77
2023/05/07 09:41:27;;;;;;;;;;;;;;;22.34;53.90;96882.78;4232831;27;5780;-76
2023/05/07 09:43:33;;;;;;;;;;;;;;;22.33;53.99;96892.75;4232658;27;5770;-79
2023/05/07 09:45:38;;;;;;;;;;;;;;;22.36;54.08;96884.13;4232723;27;5729;-80
2023/05/07 09:47:45;;;;;;;;;;;;;;;22.36;53.93;96886.03;4238628;27;5836;-76
2023/05/07 09:49:49;;;;;;;;;;;;;;;22.31;53.86;96880.59;4229762;27;5870;-77
2023/05/07 09:51:53;;;;;;;;;;;;;;;22.33;53.66;96881.16;4231432;28;5711;-79
2023/05/07 09:53:59;;;;;;;;;;;;;;;22.36;53.27;96880.63;4235260;27;5688;-66
2023/05/07 09:56:03;;;;;;;;;;;;;;;22.39;53.18;96885.47;4226109;27;5634;-77
2023/05/07 09:58:07;;;;;;;;;;;;;;;22.33;53.34;96879.28;4227270;27;5903;-81
2023/05/07 10:00:11;;;;;;;;;;;;;;;22.34;53.26;96874.72;4219924;27;5612;-83
2023/05/07 10:02:18;;;;;;;;;;;;;;;22.34;53.18;96880.09;4225765;27;5854;-83
2023/05/07 10:04:22;;;;;;;;;;;;;;;22.35;52.97;96877.13;4222454;27;5811;-83
2023/05/07 10:06:26;;;;;;;;;;;;;;;22.40;53.18;96872.81;4221213;27;5676;-80
2023/05/07 10:08:31;;;;;;;;;;;;;;;22.43;52.58;96870.41;4226666;27;5845;-80
2023/05/07 10:10:35;;;;;;;;;;;;;;;22.44;52.62;96872.03;4230404;27;5740;-80
2023/05/07 10:12:40;;;;;;;;;;;;;;;22.49;52.72;96873.91;4226786;27;5664;-77
2023/05/07 10:14:43;;;;;;;;;;;;;;;22.49;52.74;96874.72;4223375;27;5740;-75
2023/05/07 10:16:48;;;;;;;;;;;;;;;22.50;52.31;96873.66;4229157;27;5658;-80
2023/05/07 10:18:53;;;;;;;;;;;;;;;22.52;52.58;96876.06;4225531;27;6370;-82
2023/05/07 10:21:02;;;;;;;;;;;;;;;22.52;52.05;96868.00;4228184;27;5866;-80
2023/05/07 10:23:06;;;;;;;;;;;;;;;22.53;51.85;96872.28;4225283;27;5661;-76
2023/05/07 10:25:15;;;;;;;;;;;;;;;22.54;51.78;96869.38;4224341;27;5880;-76
2023/05/07 10:27:19;;;;;;;;;;;;;;;22.54;51.61;96876.63;4236863;27;5654;-75
2023/05/07 10:29:31;;;;;;;;;;;;;;;22.55;51.81;96879.06;4228531;27;5858;-78
2023/05/07 10:31:49;;;;;;;;;;;;;;;22.54;51.33;96869.38;4230063;27;5872;-76
2023/05/07 10:33:56;;;;;;;;;;;;;;;22.56;51.48;96869.09;4229164;28;5649;-76
2023/05/07 10:36:02;;;;;;;;;;;;;;;22.59;51.32;96871.25;4232876;27;6426;-82
2023/05/07 10:38:06;;;;;;;;;;;;;;;22.60;51.00;96868.28;4222202;27;5848;-81
2023/05/07 10:40:13;;;;;;;;;;;;;;;22.64;51.28;96869.34;4233554;27;5654;-72
2023/05/07 10:42:16;;;;;;;;;;;;;;;22.65;50.88;96870.16;4233767;27;5728;-75
2023/05/07 10:44:28;;;;;;;;;;;;;;;22.68;50.71;96866.94;4232326;27;5753;-73
2023/05/07 10:46:34;;;;;;;;;;;;;;;22.70;50.50;96863.97;4233724;27;5830;-73
2023/05/07 10:49:10;;;;;;;;;;;;;;;22.72;50.78;96864.50;4231219;27;5809;-76
2023/05/07 10:51:21;;;;;;;;;;;;;;;22.76;50.60;96870.97;4232841;27;5861;-79
2023/05/07 10:53:28;;;;;;;;;;;;;;;22.79;50.69;96868.56;4227812;27;5657;-76
2023/05/07 10:55:31;;;;;;;;;;;;;;;22.78;50.35;96871.53;4225766;27;5854;-82
2023/05/07 10:57:35;;;;;;;;;;;;;;;22.78;50.32;96864.25;4227053;28;5645;-77
2023/05/07 10:59:42;;;;;;;;;;;;;;;22.81;50.21;96871.81;4225636;27;5747;-81
2023/05/07 11:01:54;;;;;;;;;;;;;;;22.82;49.89;96864.53;4231998;27;5650;-80
2023/05/07 11:04:17;;;;;;;;;;;;;;;22.76;49.73;96868.28;4223589;27;5642;-73
2023/05/07 11:06:20;;;;;;;;;;;;;;;22.77;49.70;96861.84;4246203;27;5834;-77
2023/05/07 11:08:23;;;;;;;;;;;;;;;22.78;49.45;96866.16;4226714;27;5654;-78
2023/05/07 11:10:48;;;;;;;;;;;;;;;22.79;49.58;96865.06;4224128;27;6052;-81
2023/05/07 11:12:55;;;;;;;;;;;;;;;22.79;49.63;96859.69;4233546;27;5763;-72
2023/05/07 11:14:58;;;;;;;;;;;;;;;22.79;49.04;96862.38;4236486;27;6297;-82
2023/05/07 11:17:03;;;;;;;;;;;;;;;22.80;49.49;96869.38;4231287;28;5718;-77
2023/05/07 11:19:06;;;;;;;;;;;;;;;22.80;49.46;96867.50;4229354;27;5675;-77
2023/05/07 11:21:12;;;;;;;;;;;;;;;22.79;49.49;96873.16;4225469;27;5641;-76
2023/05/07 11:23:51;;;;;;;;;;;;;;;22.78;49.35;96882.31;4219766;27;5742;-77
2023/05/07 11:26:00;;;;;;;;;;;;;;;22.75;48.85;96872.06;4220010;27;5661;-77
2023/05/07 11:28:07;;;;;;;;;;;;;;;22.69;49.20;96883.94;4217065;27;5683;-76
2023/05/07 11:30:11;;;;;;;;;;;;;;;22.67;49.19;96876.91;4227509;27;5666;-77
2023/05/07 11:32:14;;;;;;;;;;;;;;;22.62;49.14;96876.91;4223397;27;5761;-77
2023/05/07 11:34:22;;;;;;;;;;;;;;;22.58;48.90;96883.09;4230489;27;5651;-76
2023/05/07 11:36:31;;;;;;;;;;;;;;;22.54;48.99;96887.41;4224658;28;5777;-77
2023/05/07 11:38:37;;;;;;;;;;;;;;;22.51;48.67;96887.94;4229253;27;5650;-86
2023/05/07 11:40:50;;;;;;;;;;;;;;;22.48;48.78;96889.28;4233095;28;6347;-86
2023/05/07 11:42:54;;;;;;;;;;;;;;;22.47;48.67;96890.34;4223940;28;5648;-86
2023/05/07 11:44:56;;;;;;;;;;;;;;;22.44;48.50;96892.78;4235104;28;5650;-87
2023/05/07 11:46:59;;;;;;;;;;;;;;;22.42;48.56;96890.31;4230821;27;5717;-87
2023/05/07 11:49:03;;;;;;;;;;;;;;;22.40;48.92;96892.47;4238456;27;6449;-86
2023/05/07 11:51:08;;;;;;;;;;;;;;;22.38;48.82;96889.25;4239359;28;5638;-87
2023/05/07 11:53:12;;;;;;;;;;;;;;;22.36;48.66;96899.47;4236759;27;5647;-87
2023/05/07 11:55:19;;;;;;;;;;;;;;;22.33;48.52;96902.72;4235567;27;5650;-87
2023/05/07 11:57:23;;;;;;;;;;;;;;;22.31;48.89;96905.69;4235075;27;5777;-87
2023/05/07 11:59:25;;;;;;;;;;;;;;;22.28;49.00;96908.06;4231037;28;5814;-87
2023/05/07 12:01:28;;;;;;;;;;;;;;;22.25;49.04;96906.72;4231349;27;5746;-86
2023/05/07 12:03:31;;;;;;;;;;;;;;;22.25;49.06;96903.22;4232987;28;5734;-87
2023/05/07 12:05:41;;;;;;;;;;;;;;;22.23;49.28;96914.25;4243455;27;5785;-86
2023/05/07 12:07:44;;;;;;;;;;;;;;;22.21;48.84;96921.00;4235461;28;5753;-86
2023/05/07 12:09:48;;;;;;;;;;;;;;;22.21;49.24;96931.75;4231075;27;5751;-86
2023/05/07 12:11:52;;;;;;;;;;;;;;;22.18;48.99;96927.69;4237105;27;5616;-86
2023/05/07 12:13:56;;;;;;;;;;;;;;;22.15;49.18;96930.13;4229195;27;6351;-86
2023/05/07 12:16:03;;;;;;;;;;;;;;;22.11;49.61;96931.72;4236840;27;5785;-85
2023/05/07 12:18:07;;;;;;;;;;;;;;;22.05;49.40;96931.66;4234160;27;5642;-85
2023/05/07 12:20:11;;;;;;;;;;;;;;;22.05;49.40;96930.84;4233118;28;5659;-86
2023/05/07 12:22:14;;;;;;;;;;;;;;;22.01;49.57;96935.16;4238560;27;5651;-85
2023/05/07 12:24:16;;;;;;;;;;;;;;;22.01;49.47;96933.25;4238386;28;5748;-86
2023/05/07 12:26:25;;;;;;;;;;;;;;;22.00;49.78;96931.66;4230076;27;5838;-85
2023/05/07 12:28:28;;;;;;;;;;;;;;;22.00;49.68;96931.66;4235766;27;5714;-85
2023/05/07 12:30:31;;;;;;;;;;;;;;;21.99;49.70;96938.09;4240213;27;5666;-85
2023/05/07 12:32:36;;;;;;;;;;;;;;;21.96;49.95;96935.91;4241131;28;5736;-85
2023/05/07 12:34:40;;;;;;;;;;;;;;;21.96;50.19;96924.34;4239856;27;5749;-85
2023/05/07 12:36:49;;;;;;;;;;;;;;;21.96;50.27;96932.41;4229130;27;5613;-85
2023/05/07 12:38:52;;;;;;;;;;;;;;;21.95;50.52;96928.91;4238331;27;5651;-86
2023/05/07 12:40:55;;;;;;;;;;;;;;;21.94;50.68;96930.00;4238221;27;5761;-86
2023/05/07 12:43:02;;;;;;;;;;;;;;;21.91;50.91;96935.91;4238428;27;5774;-86
2023/05/07 12:45:11;;;;;;;;;;;;;;;21.87;50.94;96937.50;4238212;27;5637;-86
2023/05/07 12:47:16;;;;;;;;;;;;;;;21.86;51.16;96940.44;4234576;27;6472;-85
2023/05/07 12:49:20;;;;;;;;;;;;;;;21.86;50.99;96930.50;4243891;27;5655;-86
2023/05/07 12:51:28;;;;;;;;;;;;;;;21.87;51.26;96937.50;4244698;27;6359;-86
2023/05/07 12:53:32;;;;;;;;;;;;;;;21.87;50.96;96937.50;4242178;27;5805;-86
2023/05/07 12:55:42;;;;;;;;;;;;;;;21.88;51.46;96932.94;4242778;27;5795;-86
2023/05/07 12:57:50;;;;;;;;;;;;;;;21.83;51.67;96936.38;4240880;27;5597;-85
2023/05/07 12:59:59;;;;;;;;;;;;;;;21.82;51.68;96934.78;4245941;27;5703;-85
2023/05/07 13:02:01;;;;;;;;;;;;;;;21.79;51.87;96938.00;4243258;27;5629;-85
2023/05/07 13:04:05;;;;;;;;;;;;;;;21.76;51.98;96938.53;4238684;27;5593;-86
2023/05/07 13:06:12;;;;;;;;;;;;;;;21.76;51.79;96941.22;4244388;27;5635;-85
2023/05/07 13:08:24;;;;;;;;;;;;;;;21.75;52.18;96936.91;4239830;28;6687;-85
2023/05/07 13:10:28;;;;;;;;;;;;;;;21.73;52.04;96933.63;4248291;27;5734;-84
2023/05/07 13:12:31;;;;;;;;;;;;;;;21.70;52.45;96942.25;4248173;27;5633;-85
2023/05/07 13:14:34;;;;;;;;;;;;;;;21.66;52.17;96941.16;4244060;27;5696;-85
2023/05/07 13:16:38;;;;;;;;;;;;;;;21.64;52.79;96943.28;4241916;27;5633;-85
2023/05/07 13:18:43;;;;;;;;;;;;;;;21.62;52.58;96948.09;4242270;27;5729;-85
2023/05/07 13:20:49;;;;;;;;;;;;;;;21.59;52.82;96948.63;4247637;27;5628;-87
2023/05/07 13:22:55;;;;;;;;;;;;;;;21.58;53.21;96955.06;4244505;27;5648;-87
2023/05/07 13:24:57;;;;;;;;;;;;;;;21.62;53.08;96956.97;4246595;27;5732;-87
2023/05/07 13:27:00;;;;;;;;;;;;;;;21.63;53.46;96952.41;4245097;27;5648;-86
2023/05/07 13:29:03;;;;;;;;;;;;;;;21.65;53.11;96966.44;4237505;27;6368;-86
2023/05/07 13:31:06;;;;;;;;;;;;;;;21.63;53.69;96965.84;4239256;27;5667;-87
2023/05/07 13:33:10;;;;;;;;;;;;;;;21.62;53.34;96973.13;4245890;27;5650;-87
2023/05/07 13:35:13;;;;;;;;;;;;;;;21.60;53.86;96969.06;4235502;27;5818;-84
2023/05/07 13:37:16;;;;;;;;;;;;;;;21.57;53.92;96970.41;4236966;27;5631;-87
2023/05/07 13:39:19;;;;;;;;;;;;;;;21.56;53.77;96978.75;4236782;27;5768;-87
2023/05/07 13:41:22;;;;;;;;;;;;;;;21.54;54.08;96981.69;4233661;28;5668;-86
2023/05/07 13:43:26;;;;;;;;;;;;;;;21.52;54.07;96978.47;4228875;27;5671;-87
2023/05/07 13:45:29;;;;;;;;;;;;;;;21.49;54.31;96979.75;4224515;27;5674;-87
2023/05/07 13:47:32;;;;;;;;;;;;;;;21.46;54.13;96984.84;4232646;27;5647;-77
2023/05/07 13:49:36;;;;;;;;;;;;;;;21.42;54.25;96986.44;4233219;27;5597;-77
2023/05/07 13:51:39;;;;;;;;;;;;;;;21.34;54.46;96985.03;4234254;27;6364;-74
2023/05/07 13:53:43;;;;;;;;;;;;;;;21.26;54.85;96988.19;4232764;28;5749;-76
2023/05/07 13:55:47;;;;;;;;;;;;;;;21.21;54.53;96990.81;4231697;28;5650;-76
2023/05/07 13:57:56;;;;;;;;;;;;;;;21.19;54.70;96984.88;4234606;27;5729;-74
2023/05/07 13:59:59;;;;;;;;;;;;;;;21.20;54.60;96997.25;4226506;27;5759;-74
2023/05/07 14:02:02;;;;;;;;;;;;;;;21.20;55.15;97003.44;4226727;27;5710;-82
2023/05/07 14:04:05;;;;;;;;;;;;;;;21.20;55.09;97005.31;4235392;27;5642;-82
2023/05/07 14:06:09;;;;;;;;;;;;;;;21.19;55.16;97006.41;4228516;27;7686;-78
2023/05/07 14:08:13;;;;;;;;;;;;;;;21.11;55.18;97004.16;4228558;27;5616;-81
2023/05/07 14:10:16;;;;;;;;;;;;;;;21.08;55.31;97008.19;4234356;27;5721;-81
2023/05/07 14:12:19;;;;;;;;;;;;;;;21.07;55.53;97005.75;4234569;27;5658;-82
2023/05/07 14:14:22;;;;;;;;;;;;;;;21.08;55.40;97013.56;4235710;27;5734;-82
2023/05/07 14:16:25;;;;;;;;;;;;;;;21.10;55.82;97013.28;4233280;27;5655;-81
2023/05/07 14:18:28;;;;;;;;;;;;;;;21.07;55.91;97011.13;4224294;27;5782;-82
2023/05/07 14:20:32;;;;;;;;;;;;;;;21.05;55.85;97016.72;4231591;27;5659;-81
2023/05/07 14:22:36;;;;;;;;;;;;;;;21.01;55.78;97021.00;4242505;27;5651;-82
2023/05/07 14:24:39;;;;;;;;;;;;;;;21.02;56.28;97027.19;4235280;27;5651;-81
2023/05/07 14:26:42;;;;;;;;;;;;;;;21.05;55.83;97018.59;4238589;27;5645;-81
2023/05/07 14:28:46;;;;;;;;;;;;;;;21.02;56.01;97019.13;4235301;27;5108;-81
2023/05/07 14:30:49;;;;;;;;;;;;;;;21.01;55.97;97025.56;4235309;27;5739;-81
2023/05/07 14:32:52;;;;;;;;;;;;;;;20.99;56.44;97022.31;4234094;27;5640;-81
2023/05/07 14:34:55;;;;;;;;;;;;;;;20.98;56.39;97031.47;4227446;27;5684;-82
2023/05/07 14:36:58;;;;;;;;;;;;;;;20.98;56.25;97034.16;4235817;27;5670;-81
2023/05/07 14:39:03;;;;;;;;;;;;;;;20.94;56.39;97031.13;4240050;27;5639;-81
2023/05/07 14:41:05;;;;;;;;;;;;;;;20.96;56.57;97034.41;4234132;27;5741;-81
2023/05/07 14:43:08;;;;;;;;;;;;;;;20.94;56.64;97041.88;4237275;27;5650;-81
2023/05/07 14:45:11;;;;;;;;;;;;;;;20.94;56.44;97037.31;4227449;27;5683;-81
2023/05/07 14:47:15;;;;;;;;;;;;;;;20.90;56.55;97044.28;4229761;27;5746;-81
2023/05/07 14:49:21;;;;;;;;;;;;;;;20.87;56.75;97047.47;4232775;27;5660;-74
2023/05/07 14:51:25;;;;;;;;;;;;;;;20.88;56.74;97038.34;4226853;27;5105;-73
2023/05/07 14:53:28;;;;;;;;;;;;;;;20.90;57.07;97049.63;4235099;27;5753;-72
2023/05/07 14:55:33;;;;;;;;;;;;;;;20.90;56.66;97046.97;4237325;27;5710;-74